Time;durP1;ratioP1;P1;durP2;ratioP2;P2;SDS_P1;SDS_P2;PMS_P1;PMS_P2;Temp;Humidity;BMP_temperature;BMP_pressure;BME280_temperature;BME280_humidity;BME280_pressure;Samples;Min_cycle;Max_cycle;Signal;HPM_P1;HPM_P2
2024/01/30 00:01:58;;;;;;;12.43;7.93;;;-0.20;99.90;;;;;;5095950;28;20263;-79
2024/01/30 00:04:24;;;;;;;13.77;8.03;;;-0.20;99.90;;;;;;5093194;28;20178;-79
2024/01/30 00:06:52;;;;;;;15.70;8.07;;;-0.10;99.90;;;;;;5095156;28;20178;-77
2024/01/30 00:09:18;;;;;;;11.63;7.90;;;-0.10;99.90;;;;;;5095835;28;20223;-78
2024/01/30 00:11:46;;;;;;;13.20;7.67;;;-0.10;99.90;;;;;;5095386;28;20167;-77
2024/01/30 00:14:13;;;;;;;11.67;7.60;;;0.00;99.90;;;;;;5103538;28;20267;-78
2024/01/30 00:16:39;;;;;;;10.63;7.60;;;0.00;99.90;;;;;;5115778;28;20225;-78
2024/01/30 00:19:08;;;;;;;13.23;7.70;;;0.00;99.90;;;;;;5115090;28;20656;-80
2024/01/30 00:21:34;;;;;;;9.77;7.47;;;0.10;99.90;;;;;;5116090;28;20199;-79
2024/01/30 00:23:59;;;;;;;10.03;7.40;;;0.10;99.90;;;;;;5116768;28;20166;-78
2024/01/30 00:26:25;;;;;;;16.17;8.37;;;0.10;99.90;;;;;;5118439;28;20220;-78
2024/01/30 00:28:51;;;;;;;10.47;7.73;;;0.00;99.90;;;;;;5123505;28;20173;-78
2024/01/30 00:31:17;;;;;;;12.07;7.93;;;-1.00;99.90;;;;;;5128573;28;20208;-79
2024/01/30 00:33:42;;;;;;;14.60;8.03;;;-0.10;99.90;;;;;;5123087;28;20774;-76
2024/01/30 00:36:10;;;;;;;12.47;9.03;;;-0.10;99.90;;;;;;5136618;28;20178;-79
2024/01/30 00:38:36;;;;;;;12.93;8.80;;;-0.10;99.90;;;;;;5131718;28;20541;-77
2024/01/30 00:41:02;;;;;;;16.27;9.47;;;-0.10;99.90;;;;;;5116403;28;20174;-78
2024/01/30 00:43:28;;;;;;;12.87;8.57;;;-0.20;99.90;;;;;;5114118;28;20186;-77
2024/01/30 00:45:54;;;;;;;14.13;8.70;;;-0.20;99.90;;;;;;5114776;28;20245;-78
2024/01/30 00:48:20;;;;;;;14.90;9.30;;;-0.30;99.90;;;;;;5115121;28;20173;-80
2024/01/30 00:50:46;;;;;;;13.60;8.67;;;-0.20;99.90;;;;;;5115134;28;20174;-80
2024/01/30 00:53:12;;;;;;;12.63;9.47;;;-0.40;99.90;;;;;;5115721;28;20501;-78
2024/01/30 00:55:38;;;;;;;16.70;9.60;;;-0.50;99.90;;;;;;5115908;28;20177;-80
2024/01/30 00:58:04;;;;;;;14.87;10.03;;;-0.40;99.90;;;;;;5115709;28;20250;-79
2024/01/30 01:00:31;;;;;;;13.70;10.03;;;-0.40;99.90;;;;;;5114358;28;20177;-78
2024/01/30 01:03:01;;;;;;;13.30;9.50;;;-0.50;99.90;;;;;;5114777;28;20181;-78
2024/01/30 01:05:27;;;;;;;16.57;9.50;;;-0.30;99.90;;;;;;5112775;28;20181;-80
2024/01/30 01:07:52;;;;;;;14.53;9.60;;;-0.50;99.90;;;;;;5114381;28;20172;-78
2024/01/30 01:10:18;;;;;;;14.30;9.30;;;-0.50;99.90;;;;;;5114759;28;20200;-78
2024/01/30 01:12:45;;;;;;;13.07;9.33;;;-0.60;99.90;;;;;;5113964;28;20624;-77
2024/01/30 01:15:11;;;;;;;13.67;9.47;;;-0.60;99.90;;;;;;5113994;28;20177;-79
2024/01/30 01:17:38;;;;;;;11.80;8.77;;;-0.50;99.90;;;;;;5114576;28;20256;-78
2024/01/30 01:20:06;;;;;;;15.97;10.37;;;-0.50;99.90;;;;;;5114438;28;20267;-80
2024/01/30 01:22:33;;;;;;;16.03;9.47;;;-0.50;99.90;;;;;;5116766;28;20229;-80
2024/01/30 01:25:00;;;;;;;11.07;8.30;;;-0.50;99.90;;;;;;5114605;28;20180;-78
2024/01/30 01:27:27;;;;;;;12.70;8.47;;;-0.50;99.90;;;;;;5114550;28;20169;-80
2024/01/30 01:29:53;;;;;;;14.33;8.73;;;-0.60;99.90;;;;;;5112741;28;20185;-79
2024/01/30 01:32:19;;;;;;;10.53;8.10;;;-0.50;99.90;;;;;;5114909;28;20173;-77
2024/01/30 01:34:45;;;;;;;11.87;8.23;;;-0.60;99.90;;;;;;5114635;28;20267;-79
2024/01/30 01:37:11;;;;;;;12.43;8.60;;;-0.60;99.90;;;;;;5113698;28;20712;-79
2024/01/30 01:39:36;;;;;;;17.50;8.77;;;-0.60;99.90;;;;;;5114086;28;20177;-79
2024/01/30 01:42:02;;;;;;;12.07;8.63;;;-0.60;99.90;;;;;;5113505;28;20255;-78
2024/01/30 01:44:28;;;;;;;12.33;8.50;;;-0.60;99.90;;;;;;5114379;28;20180;-77
2024/01/30 01:46:55;;;;;;;12.20;8.63;;;-0.60;99.90;;;;;;5114016;28;20173;-78
2024/01/30 01:49:28;;;;;;;12.17;7.97;;;-0.70;99.90;;;;;;5113915;28;20178;-78
2024/01/30 01:51:58;;;;;;;13.00;8.50;;;-0.80;99.90;;;;;;5099028;28;20182;-79
2024/01/30 01:54:27;;;;;;;15.20;8.47;;;-0.90;99.90;;;;;;5093662;28;20163;-77
2024/01/30 01:56:54;;;;;;;11.60;8.27;;;-0.80;99.90;;;;;;5092791;28;20214;-77
2024/01/30 01:59:20;;;;;;;13.33;7.67;;;-0.80;99.90;;;;;;5093666;28;20519;-79
2024/01/30 02:01:49;;;;;;;12.67;8.57;;;-0.80;99.90;;;;;;5094855;28;20223;-79
2024/01/30 02:04:15;;;;;;;9.63;7.53;;;-0.70;99.90;;;;;;5095049;28;20173;-77
2024/01/30 02:06:41;;;;;;;15.83;9.43;;;-0.70;99.90;;;;;;5093115;28;20185;-79
2024/01/30 02:09:09;;;;;;;15.93;10.30;;;-0.70;99.90;;;;;;5093295;28;20629;-79
2024/01/30 02:11:34;;;;;;;18.77;10.80;;;-0.60;99.90;;;;;;5091704;28;20169;-79
2024/01/30 02:14:04;;;;;;;18.23;11.00;;;-0.70;99.90;;;;;;5092580;28;20197;-78
2024/01/30 02:16:30;;;;;;;17.63;11.13;;;-0.70;99.90;;;;;;5092533;28;20319;-80
2024/01/30 02:18:55;;;;;;;20.00;11.27;;;-0.80;99.90;;;;;;5092574;28;20277;-79
2024/01/30 02:21:26;;;;;;;18.40;11.67;;;-0.80;99.90;;;;;;5093535;28;20174;-78
2024/01/30 02:23:54;;;;;;;18.43;11.77;;;-0.80;99.90;;;;;;5093102;28;20253;-79
2024/01/30 02:26:20;;;;;;;16.20;10.80;;;-0.90;99.90;;;;;;5093026;28;20264;-79
2024/01/30 02:28:46;;;;;;;18.43;11.67;;;-0.90;99.90;;;;;;5091576;28;20268;-79
2024/01/30 02:31:11;;;;;;;16.67;13.17;;;-0.80;99.90;;;;;;5093728;28;20694;-78
2024/01/30 02:33:37;;;;;;;20.37;11.67;;;-0.80;99.90;;;;;;5093170;28;20168;-78
2024/01/30 02:36:03;;;;;;;19.97;12.70;;;-0.80;99.90;;;;;;5093198;28;20729;-80
2024/01/30 02:38:29;;;;;;;23.67;13.47;;;-0.80;99.90;;;;;;5094204;28;20269;-80
2024/01/30 02:40:56;;;;;;;20.93;13.23;;;-0.90;99.90;;;;;;5095088;28;20173;-79
2024/01/30 02:43:23;;;;;;;20.83;13.30;;;-0.90;99.90;;;;;;5092688;28;20203;-77
2024/01/30 02:45:48;;;;;;;25.30;14.60;;;-0.80;99.90;;;;;;5092616;28;20181;-79
2024/01/30 02:48:14;;;;;;;22.17;14.40;;;-0.80;99.90;;;;;;5093482;28;20245;-79
2024/01/30 02:50:40;;;;;;;27.70;14.53;;;-0.90;99.90;;;;;;5094897;28;20173;-79
2024/01/30 02:53:05;;;;;;;19.40;13.67;;;-0.90;99.90;;;;;;5108021;28;20253;-78
2024/01/30 02:55:31;;;;;;;20.20;13.30;;;-1.00;99.90;;;;;;5111292;28;20172;-78
2024/01/30 02:57:57;;;;;;;24.03;14.03;;;-1.00;99.90;;;;;;5096998;28;20209;-79
2024/01/30 03:00:24;;;;;;;23.03;13.73;;;-1.40;99.90;;;;;;5091404;28;20176;-78
2024/01/30 03:02:49;;;;;;;23.67;13.87;;;-1.10;99.90;;;;;;5091249;28;20180;-79
2024/01/30 03:05:15;;;;;;;19.83;12.87;;;-1.20;99.90;;;;;;5092511;28;20181;-79
2024/01/30 03:07:42;;;;;;;24.97;14.37;;;-1.40;99.90;;;;;;5092974;28;20192;-78
2024/01/30 03:10:08;;;;;;;24.30;14.07;;;-1.40;99.90;;;;;;5091406;28;20255;-78
2024/01/30 03:12:34;;;;;;;25.10;14.40;;;-1.30;99.90;;;;;;5092491;28;20632;-79
2024/01/30 03:15:00;;;;;;;20.80;13.33;;;-1.30;99.90;;;;;;5093021;28;20172;-78
2024/01/30 03:17:25;;;;;;;20.07;14.27;;;-1.30;99.90;;;;;;5096070;28;20256;-79
2024/01/30 03:19:51;;;;;;;24.43;13.90;;;-1.30;99.90;;;;;;5096428;28;20198;-77
2024/01/30 03:22:17;;;;;;;20.97;13.93;;;-1.40;99.90;;;;;;5094968;28;20641;-78
2024/01/30 03:24:43;;;;;;;19.90;13.57;;;-1.40;99.90;;;;;;5096317;28;20253;-79
2024/01/30 03:27:09;;;;;;;22.33;13.80;;;-1.30;99.90;;;;;;5096437;28;20176;-78
2024/01/30 03:29:35;;;;;;;22.27;13.93;;;-1.40;99.90;;;;;;5095977;28;20253;-78
2024/01/30 03:32:01;;;;;;;20.93;13.53;;;-1.40;99.90;;;;;;5095831;28;20186;-78
2024/01/30 03:34:26;;;;;;;21.43;13.13;;;-1.40;99.90;;;;;;5095609;28;20619;-79
2024/01/30 03:36:52;;;;;;;19.73;13.17;;;-1.50;99.90;;;;;;5095928;28;20198;-78
2024/01/30 03:39:18;;;;;;;21.17;13.90;;;-1.50;99.90;;;;;;5096130;28;20265;-77
2024/01/30 03:41:44;;;;;;;18.33;13.30;;;-1.40;99.90;;;;;;5096576;28;20222;-78
2024/01/30 03:44:10;;;;;;;18.53;12.87;;;-1.30;99.90;;;;;;5096483;28;20510;-78
2024/01/30 03:46:36;;;;;;;20.93;13.07;;;-1.40;99.90;;;;;;5096699;28;20178;-79
2024/01/30 03:49:02;;;;;;;20.57;12.77;;;-1.30;99.90;;;;;;5097414;28;20262;-78
2024/01/30 03:51:27;;;;;;;14.87;11.17;;;-1.40;99.90;;;;;;5096727;28;20629;-79
2024/01/30 03:53:53;;;;;;;24.67;11.90;;;-1.30;99.90;;;;;;5096260;28;20176;-79
2024/01/30 03:56:19;;;;;;;18.27;11.67;;;-1.30;99.90;;;;;;5097193;28;20246;-80
2024/01/30 03:58:45;;;;;;;16.73;11.23;;;-1.30;99.90;;;;;;5097143;28;20180;-79
2024/01/30 04:01:16;;;;;;;20.83;11.80;;;-1.30;99.90;;;;;;5099756;28;20169;-78
2024/01/30 04:03:43;;;;;;;17.40;12.03;;;-1.30;99.90;;;;;;5096910;28;20183;-79
2024/01/30 04:06:10;;;;;;;19.33;12.00;;;-1.30;99.90;;;;;;5097427;28;20169;-78
2024/01/30 04:08:37;;;;;;;15.67;11.20;;;-1.30;99.90;;;;;;5097527;28;20167;-78
2024/01/30 04:11:06;;;;;;;16.00;10.70;;;-1.30;99.90;;;;;;5097141;28;20185;-78
2024/01/30 04:13:32;;;;;;;16.80;11.40;;;-1.30;99.90;;;;;;5096405;28;20172;-77
2024/01/30 04:16:02;;;;;;;16.43;11.27;;;-1.30;99.90;;;;;;5096475;28;20677;-77
2024/01/30 04:18:28;;;;;;;15.00;9.83;;;-1.30;99.90;;;;;;5098490;28;20233;-78
2024/01/30 04:20:54;;;;;;;14.07;9.57;;;-1.40;99.90;;;;;;5103068;28;20173;-78
2024/01/30 04:23:20;;;;;;;13.77;9.60;;;-1.40;99.90;;;;;;5107149;28;20170;-77
2024/01/30 04:25:46;;;;;;;15.30;10.13;;;-1.40;99.90;;;;;;5108004;28;20180;-79
2024/01/30 04:28:12;;;;;;;12.50;9.90;;;-1.40;99.90;;;;;;5105911;28;20181;-76
2024/01/30 04:30:38;;;;;;;11.97;9.13;;;-1.40;99.90;;;;;;5103467;28;20180;-78
2024/01/30 04:33:04;;;;;;;14.83;10.30;;;-1.40;99.90;;;;;;5097948;28;20760;-78
2024/01/30 04:35:30;;;;;;;14.37;9.90;;;-1.50;99.90;;;;;;5096818;28;20613;-78
2024/01/30 04:37:56;;;;;;;14.33;9.23;;;-1.60;99.90;;;;;;5096618;28;20217;-79
2024/01/30 04:40:22;;;;;;;14.50;9.70;;;-1.60;99.90;;;;;;5096335;28;20173;-78
2024/01/30 04:42:47;;;;;;;14.80;8.70;;;-1.60;99.90;;;;;;5095545;28;20253;-79
2024/01/30 04:45:13;;;;;;;14.00;8.73;;;-1.50;99.90;;;;;;5095784;28;20178;-78
2024/01/30 04:47:39;;;;;;;12.37;8.90;;;-1.50;99.90;;;;;;5095849;28;20176;-79
2024/01/30 04:50:07;;;;;;;14.07;8.47;;;-1.50;99.90;;;;;;5093996;28;20181;-78
2024/01/30 04:52:32;;;;;;;13.47;8.50;;;-1.50;99.90;;;;;;5095081;28;20206;-79
2024/01/30 04:54:58;;;;;;;13.90;8.47;;;-1.50;99.90;;;;;;5094589;28;20594;-78
2024/01/30 04:57:24;;;;;;;13.63;8.53;;;-1.60;99.90;;;;;;5095262;28;20274;-80
2024/01/30 04:59:50;;;;;;;12.30;9.23;;;-1.60;99.90;;;;;;5095318;28;20177;-79
2024/01/30 05:02:15;;;;;;;11.80;8.37;;;-1.50;99.90;;;;;;5094705;28;20652;-78
2024/01/30 05:04:41;;;;;;;14.17;8.30;;;-1.60;99.90;;;;;;5095166;28;20176;-79
2024/01/30 05:07:07;;;;;;;10.70;8.33;;;-1.50;99.90;;;;;;5094520;28;20271;-78
2024/01/30 05:09:33;;;;;;;12.47;8.77;;;-1.50;99.90;;;;;;5094076;28;20253;-80
2024/01/30 05:11:59;;;;;;;12.23;8.40;;;-1.50;99.90;;;;;;5094926;28;20181;-78
2024/01/30 05:14:25;;;;;;;13.10;8.37;;;-1.60;99.90;;;;;;5097222;28;20178;-80
2024/01/30 05:16:50;;;;;;;10.03;7.80;;;-1.60;99.90;;;;;;5096618;28;20258;-80
2024/01/30 05:19:17;;;;;;;13.23;7.93;;;-1.70;99.90;;;;;;5095812;28;20177;-79
2024/01/30 05:21:43;;;;;;;15.10;8.27;;;-1.70;99.90;;;;;;5094407;28;20264;-79
2024/01/30 05:24:10;;;;;;;15.10;9.93;;;-1.80;99.90;;;;;;5094869;28;20610;-78
2024/01/30 05:26:36;;;;;;;15.43;8.23;;;-1.80;99.90;;;;;;5099078;28;20179;-80
2024/01/30 05:29:03;;;;;;;12.03;8.80;;;-1.80;99.90;;;;;;5093170;28;20184;-78
2024/01/30 05:31:29;;;;;;;15.30;9.33;;;-1.70;99.90;;;;;;5093229;28;20175;-79
2024/01/30 05:33:55;;;;;;;15.27;10.00;;;-1.70;99.90;;;;;;5093957;28;20522;-77
2024/01/30 05:36:21;;;;;;;13.97;9.30;;;-1.70;99.90;;;;;;5092659;28;20183;-79
2024/01/30 05:38:47;;;;;;;16.00;9.13;;;-1.70;99.90;;;;;;5093100;28;20182;-79
2024/01/30 05:41:13;;;;;;;12.40;8.90;;;-1.70;99.90;;;;;;5094273;28;20265;-78
2024/01/30 05:43:39;;;;;;;15.67;9.63;;;-1.60;99.90;;;;;;5095785;28;20186;-81
2024/01/30 05:46:06;;;;;;;13.00;9.40;;;-1.70;99.90;;;;;;5093269;28;20177;-78
2024/01/30 05:48:32;;;;;;;16.33;10.13;;;-1.60;99.90;;;;;;5093339;28;20230;-80
2024/01/30 05:50:59;;;;;;;20.77;10.40;;;-1.60;99.90;;;;;;5093352;28;20176;-78
2024/01/30 05:53:25;;;;;;;16.17;11.03;;;-1.80;99.90;;;;;;5093803;28;20519;-80
2024/01/30 05:55:51;;;;;;;18.73;10.87;;;-1.80;99.90;;;;;;5094399;28;20226;-78
2024/01/30 05:58:17;;;;;;;20.90;12.67;;;-1.70;99.90;;;;;;5093889;28;20256;-80
2024/01/30 06:00:42;;;;;;;19.53;11.50;;;-1.70;99.90;;;;;;5093487;28;20246;-77
2024/01/30 06:03:08;;;;;;;16.70;10.37;;;-1.80;99.90;;;;;;5093362;28;20178;-78
2024/01/30 06:05:34;;;;;;;15.80;9.83;;;-1.80;99.90;;;;;;5093254;28;20172;-78
2024/01/30 06:08:00;;;;;;;15.20;9.90;;;-1.80;99.90;;;;;;5095259;28;20177;-78
2024/01/30 06:10:26;;;;;;;16.47;9.50;;;-1.80;99.90;;;;;;5093299;28;20180;-80
2024/01/30 06:12:51;;;;;;;12.60;9.13;;;-1.80;99.90;;;;;;5094471;28;20183;-79
2024/01/30 06:15:17;;;;;;;16.67;9.80;;;-1.80;99.90;;;;;;5093224;28;20237;-77
2024/01/30 06:17:43;;;;;;;13.83;9.80;;;-1.80;99.90;;;;;;5093037;28;20206;-78
2024/01/30 06:20:10;;;;;;;12.50;8.73;;;-1.80;99.90;;;;;;5093043;28;20175;-77
2024/01/30 06:22:36;;;;;;;18.13;9.83;;;-1.80;99.90;;;;;;5091967;28;20201;-79
2024/01/30 06:25:02;;;;;;;13.83;8.83;;;-1.80;99.90;;;;;;5093243;28;20696;-78
2024/01/30 06:27:27;;;;;;;12.47;9.03;;;-1.70;99.90;;;;;;5093055;28;20173;-78
2024/01/30 06:29:53;;;;;;;14.10;8.80;;;-1.70;99.90;;;;;;5093499;28;20259;-79
2024/01/30 06:32:19;;;;;;;17.43;9.13;;;-1.80;99.90;;;;;;5093911;28;20171;-77
2024/01/30 06:34:45;;;;;;;15.07;9.73;;;-1.80;99.90;;;;;;5096335;28;20199;-78
2024/01/30 06:37:10;;;;;;;13.23;8.43;;;-1.70;99.90;;;;;;5094398;28;20213;-78
2024/01/30 06:39:36;;;;;;;14.07;9.57;;;-1.70;99.90;;;;;;5092222;28;20202;-77
2024/01/30 06:42:02;;;;;;;14.17;8.90;;;-1.70;99.90;;;;;;5093128;28;20238;-77
2024/01/30 06:44:28;;;;;;;15.40;9.97;;;-1.60;99.90;;;;;;5091399;28;20191;-79
2024/01/30 06:46:54;;;;;;;14.53;8.60;;;-1.60;99.90;;;;;;5092694;28;20174;-80
2024/01/30 06:49:21;;;;;;;12.47;8.70;;;-1.60;99.90;;;;;;5094825;28;20178;-79
2024/01/30 06:51:47;;;;;;;13.00;8.97;;;-1.60;99.90;;;;;;5096531;28;20165;-78
2024/01/30 06:54:13;;;;;;;18.00;9.90;;;-1.60;99.90;;;;;;5096779;28;20175;-77
2024/01/30 06:56:39;;;;;;;12.53;9.60;;;-1.50;99.90;;;;;;5097449;28;20213;-77
2024/01/30 06:59:05;;;;;;;18.63;9.37;;;-1.60;99.90;;;;;;5095669;28;20271;-77
2024/01/30 07:01:31;;;;;;;17.67;10.00;;;-1.60;99.90;;;;;;5103769;28;20237;-80
2024/01/30 07:03:57;;;;;;;21.30;12.37;;;-1.60;99.90;;;;;;5098267;28;20181;-79
2024/01/30 07:06:23;;;;;;;20.87;11.60;;;-1.60;99.90;;;;;;5099109;28;20259;-78
2024/01/30 07:08:52;;;;;;;16.20;11.57;;;-1.50;99.90;;;;;;5097670;28;20197;-80
2024/01/30 07:11:22;;;;;;;14.00;9.83;;;-1.10;99.90;;;;;;5094478;28;20272;-78
2024/01/30 07:13:48;;;;;;;16.23;11.90;;;-0.80;99.90;;;;;;5076014;28;20216;-76
2024/01/30 07:16:15;;;;;;;15.17;10.60;;;-0.60;99.90;;;;;;5076751;28;20241;-77
2024/01/30 07:18:41;;;;;;;15.47;10.50;;;-0.30;99.90;;;;;;5076869;28;20270;-77
2024/01/30 07:21:06;;;;;;;14.93;10.03;;;-0.10;99.90;;;;;;5076300;28;20257;-78
2024/01/30 07:23:34;;;;;;;13.47;10.20;;;-0.10;99.90;;;;;;5076078;28;20182;-77
2024/01/30 07:25:59;;;;;;;19.30;10.93;;;-0.20;99.90;;;;;;5083140;28;20178;-78
2024/01/30 07:28:25;;;;;;;16.50;11.00;;;-0.30;99.90;;;;;;5088167;28;20265;-77
2024/01/30 07:30:51;;;;;;;19.63;12.13;;;-0.50;99.90;;;;;;5078880;28;20178;-77
2024/01/30 07:33:17;;;;;;;19.97;12.43;;;-0.50;99.90;;;;;;5076414;28;20193;-78
2024/01/30 07:35:43;;;;;;;18.40;12.20;;;-0.70;99.90;;;;;;5075866;28;20186;-78
2024/01/30 07:38:08;;;;;;;23.70;13.20;;;-0.80;99.90;;;;;;5074720;28;20259;-77
2024/01/30 07:40:34;;;;;;;25.20;13.67;;;-1.10;99.90;;;;;;5075673;28;20580;-79
2024/01/30 07:43:00;;;;;;;21.33;14.33;;;-1.00;99.90;;;;;;5075512;28;20240;-79
2024/01/30 07:45:32;;;;;;;19.37;13.83;;;-0.90;99.90;;;;;;5075932;28;20526;-78
2024/01/30 07:47:58;;;;;;;21.40;14.07;;;-1.00;99.90;;;;;;5076015;28;20515;-78
2024/01/30 07:50:23;;;;;;;23.07;14.60;;;-0.90;99.90;;;;;;5075445;28;20215;-77
2024/01/30 07:52:51;;;;;;;28.10;14.83;;;-1.00;99.90;;;;;;5077196;28;20183;-77
2024/01/30 07:55:48;;;;;;;21.47;15.10;;;-0.90;99.90;;;;;;5076573;28;20180;-78
2024/01/30 07:58:14;;;;;;;21.97;13.57;;;-0.90;99.90;;;;;;5078273;28;20210;-77
2024/01/30 08:00:39;;;;;;;23.07;14.40;;;-0.80;99.90;;;;;;5074748;28;20174;-77
2024/01/30 08:03:05;;;;;;;24.77;13.97;;;-0.80;99.90;;;;;;5074715;28;20217;-77
2024/01/30 08:05:31;;;;;;;21.60;13.40;;;-0.70;99.90;;;;;;5076215;28;20175;-76
2024/01/30 08:07:57;;;;;;;22.67;13.77;;;-0.70;99.90;;;;;;5076171;28;20576;-76
2024/01/30 08:10:23;;;;;;;21.03;14.47;;;-0.70;99.90;;;;;;5074602;28;20167;-78
2024/01/30 08:12:49;;;;;;;21.00;14.73;;;-0.70;99.90;;;;;;5074189;28;20626;-77
2024/01/30 08:15:15;;;;;;;24.00;14.30;;;-0.90;99.90;;;;;;5074131;28;20194;-78
2024/01/30 08:17:40;;;;;;;22.23;13.93;;;-0.80;99.90;;;;;;5075856;28;20214;-79
2024/01/30 08:20:10;;;;;;;21.90;13.70;;;-0.80;99.90;;;;;;5075687;28;20174;-79
2024/01/30 08:22:37;;;;;;;21.40;13.93;;;-0.80;99.90;;;;;;5075366;28;20179;-79
2024/01/30 08:25:04;;;;;;;21.73;13.43;;;-0.80;99.90;;;;;;5075252;28;20531;-77
2024/01/30 08:27:29;;;;;;;21.07;13.60;;;-0.80;99.90;;;;;;5075493;28;20178;-78
2024/01/30 08:29:55;;;;;;;20.70;13.00;;;-0.80;99.90;;;;;;5073940;28;20185;-78
2024/01/30 08:32:21;;;;;;;20.80;14.13;;;-0.70;99.90;;;;;;5074811;28;20182;-78
2024/01/30 08:34:47;;;;;;;27.13;15.80;;;-0.60;99.90;;;;;;5076778;28;20179;-77
2024/01/30 08:37:16;;;;;;;24.20;14.53;;;-0.60;99.90;;;;;;5079747;28;20209;-76
2024/01/30 08:39:42;;;;;;;25.40;15.23;;;-0.60;99.90;;;;;;5075958;28;20289;-77
2024/01/30 08:42:08;;;;;;;24.50;15.40;;;-0.50;99.90;;;;;;5074223;28;20675;-77
2024/01/30 08:44:33;;;;;;;25.90;15.67;;;-0.50;99.90;;;;;;5075440;28;20175;-78
2024/01/30 08:46:59;;;;;;;22.90;14.73;;;-0.40;99.90;;;;;;5073960;28;20186;-77
2024/01/30 08:49:25;;;;;;;24.20;14.73;;;-0.40;99.90;;;;;;5075206;28;20179;-77
2024/01/30 08:51:50;;;;;;;25.67;14.70;;;-0.40;99.90;;;;;;5075416;28;20166;-79
2024/01/30 08:54:17;;;;;;;27.53;14.80;;;-0.30;99.90;;;;;;5075538;28;20184;-77
2024/01/30 08:56:43;;;;;;;22.57;14.07;;;-0.10;99.90;;;;;;5073545;28;20214;-76
2024/01/30 08:59:08;;;;;;;28.50;14.73;;;0.00;99.90;;;;;;5075134;28;20181;-76
2024/01/30 09:01:34;;;;;;;23.47;14.53;;;0.00;99.90;;;;;;5074825;28;20181;-80
2024/01/30 09:04:00;;;;;;;23.67;14.50;;;0.00;99.90;;;;;;5075003;28;20526;-78
2024/01/30 09:06:27;;;;;;;26.13;15.20;;;-0.20;99.90;;;;;;5075808;28;20534;-77
2024/01/30 09:08:53;;;;;;;22.53;15.37;;;-0.10;99.90;;;;;;5075746;28;20189;-77
2024/01/30 09:11:19;;;;;;;27.10;14.57;;;-0.10;99.90;;;;;;5075706;28;20246;-77
2024/01/30 09:13:45;;;;;;;22.20;14.97;;;0.00;99.90;;;;;;5074963;28;20579;-76
2024/01/30 09:16:11;;;;;;;22.20;13.53;;;0.10;99.90;;;;;;5073910;28;20223;-77
2024/01/30 09:18:36;;;;;;;17.97;13.50;;;0.30;99.90;;;;;;5074423;28;20859;-76
2024/01/30 09:21:02;;;;;;;18.50;13.50;;;0.50;99.90;;;;;;5074705;28;20179;-77
2024/01/30 09:23:28;;;;;;;24.30;13.87;;;0.50;99.90;;;;;;5075230;28;20183;-79
2024/01/30 09:25:54;;;;;;;22.93;14.37;;;0.40;99.90;;;;;;5074983;28;20206;-78
2024/01/30 09:28:20;;;;;;;25.03;14.70;;;0.40;99.90;;;;;;5075664;28;20209;-77
2024/01/30 09:30:45;;;;;;;25.03;14.43;;;0.40;99.90;;;;;;5074152;28;20171;-78
2024/01/30 09:33:11;;;;;;;23.57;14.77;;;0.50;99.90;;;;;;5074620;28;20175;-77
2024/01/30 09:35:37;;;;;;;24.67;14.17;;;0.70;99.90;;;;;;5073546;28;20174;-77
2024/01/30 09:38:03;;;;;;;23.00;14.77;;;0.80;99.90;;;;;;5073653;28;20663;-76
2024/01/30 09:40:29;;;;;;;21.40;13.67;;;0.80;99.90;;;;;;5074275;28;20259;-77
2024/01/30 09:42:55;;;;;;;21.97;14.30;;;0.90;99.90;;;;;;5072640;28;20576;-76
2024/01/30 09:45:25;;;;;;;19.67;13.27;;;1.10;99.90;;;;;;5074424;28;20167;-77
2024/01/30 09:47:51;;;;;;;21.07;13.40;;;1.20;99.90;;;;;;5075257;28;20176;-76
2024/01/30 09:50:18;;;;;;;23.53;12.87;;;1.20;99.90;;;;;;5074375;28;20230;-75
2024/01/30 09:52:47;;;;;;;18.37;12.43;;;1.30;99.90;;;;;;5073370;28;20184;-76
2024/01/30 09:55:14;;;;;;;19.33;12.00;;;1.40;99.90;;;;;;5075138;28;20542;-77
2024/01/30 09:57:41;;;;;;;19.43;11.73;;;1.50;99.90;;;;;;5081065;28;20207;-77
2024/01/30 10:00:08;;;;;;;18.47;12.57;;;1.60;99.90;;;;;;5074431;28;20191;-77
2024/01/30 10:02:35;;;;;;;18.77;11.50;;;1.60;99.90;;;;;;5072203;28;20175;-76
2024/01/30 10:05:01;;;;;;;18.67;11.77;;;1.70;99.90;;;;;;5072870;28;20172;-77
2024/01/30 10:07:26;;;;;;;17.23;12.37;;;1.70;99.90;;;;;;5073241;28;20262;-77
2024/01/30 10:09:55;;;;;;;22.10;11.87;;;1.80;99.90;;;;;;5073047;28;20203;-76
2024/01/30 10:12:21;;;;;;;17.57;11.80;;;1.90;99.90;;;;;;5077920;28;20179;-76
2024/01/30 10:14:46;;;;;;;15.40;11.20;;;2.00;99.90;;;;;;5082336;28;20171;-77
2024/01/30 10:17:12;;;;;;;18.67;11.20;;;2.00;99.90;;;;;;5075821;28;20235;-79
2024/01/30 10:19:40;;;;;;;18.13;11.27;;;1.90;99.90;;;;;;5072148;28;20168;-77
2024/01/30 10:22:06;;;;;;;16.27;10.87;;;1.90;99.90;;;;;;5073082;28;20531;-78
2024/01/30 10:24:33;;;;;;;19.13;11.60;;;2.00;99.90;;;;;;5072812;28;20172;-76
2024/01/30 10:26:59;;;;;;;14.17;10.97;;;2.00;99.90;;;;;;5072474;28;20534;-77
2024/01/30 10:29:26;;;;;;;20.60;11.77;;;2.10;99.90;;;;;;5073942;28;20716;-78
2024/01/30 10:32:03;;;;;;;19.83;11.37;;;2.10;99.90;;;;;;5073836;28;20177;-77
2024/01/30 10:34:29;;;;;;;18.30;10.70;;;2.20;99.90;;;;;;5073703;28;20181;-77
2024/01/30 10:37:16;;;;;;;15.73;10.33;;;2.30;99.90;;;;;;5072906;28;20203;-76
2024/01/30 10:39:45;;;;;;;17.93;10.57;;;2.40;99.90;;;;;;5074383;28;20180;-76
2024/01/30 10:42:18;;;;;;;13.97;9.87;;;2.50;99.90;;;;;;5072666;28;20175;-78
2024/01/30 10:44:57;;;;;;;19.47;11.00;;;2.50;99.90;;;;;;5072649;28;20171;-78
2024/01/30 10:47:27;;;;;;;18.03;10.47;;;2.40;99.90;;;;;;5073114;28;20162;-77
2024/01/30 10:49:54;;;;;;;22.60;11.03;;;2.50;99.90;;;;;;5072718;28;20166;-76
2024/01/30 10:52:22;;;;;;;14.30;9.27;;;2.60;99.90;;;;;;5072887;28;20536;-77
2024/01/30 10:54:50;;;;;;;16.17;10.13;;;2.60;99.90;;;;;;5071871;28;20627;-76
2024/01/30 10:57:16;;;;;;;19.13;9.97;;;2.60;99.90;;;;;;5073535;28;20759;-77
2024/01/30 10:59:43;;;;;;;27.90;10.60;;;2.70;99.90;;;;;;5075820;28;20239;-79
2024/01/30 11:02:10;;;;;;;14.67;10.30;;;2.80;99.90;;;;;;5073630;28;20176;-76
2024/01/30 11:04:37;;;;;;;15.27;10.87;;;3.00;99.90;;;;;;5073521;28;20172;-78
2024/01/30 11:07:14;;;;;;;18.27;10.97;;;3.00;99.90;;;;;;5074550;28;20171;-77
2024/01/30 11:09:41;;;;;;;19.20;10.60;;;3.10;99.90;;;;;;5074498;28;20177;-77
2024/01/30 11:12:12;;;;;;;16.53;11.43;;;3.10;99.90;;;;;;5075894;28;20255;-76
2024/01/30 11:14:40;;;;;;;18.27;10.70;;;3.10;99.90;;;;;;5074323;28;20356;-77
2024/01/30 11:17:06;;;;;;;16.53;11.40;;;3.20;99.90;;;;;;5075511;28;20225;-79
2024/01/30 11:19:33;;;;;;;17.77;9.90;;;3.30;99.90;;;;;;5073916;28;20225;-77
2024/01/30 11:22:00;;;;;;;16.33;10.17;;;3.40;99.90;;;;;;5081135;28;20181;-78
2024/01/30 11:24:27;;;;;;;14.70;9.90;;;3.40;99.90;;;;;;5081328;28;20173;-78
2024/01/30 11:27:01;;;;;;;16.73;10.80;;;3.40;99.90;;;;;;5083409;28;20188;-76
2024/01/30 11:29:30;;;;;;;13.70;9.47;;;3.50;99.90;;;;;;5077233;28;20167;-75
2024/01/30 11:31:59;;;;;;;14.50;10.60;;;3.60;99.90;;;;;;5077779;28;20177;-78
2024/01/30 11:34:25;;;;;;;13.80;9.73;;;3.70;99.90;;;;;;5087451;28;20181;-78
2024/01/30 11:37:06;;;;;;;14.67;9.33;;;3.80;99.90;;;;;;5086219;28;20208;-79
2024/01/30 11:39:31;;;;;;;17.10;10.30;;;3.70;99.90;;;;;;5093384;28;20184;-76
2024/01/30 11:41:59;;;;;;;20.53;10.83;;;3.70;99.90;;;;;;5076281;28;20676;-76
2024/01/30 11:44:25;;;;;;;16.03;10.27;;;3.70;99.90;;;;;;5076854;28;20174;-77
2024/01/30 11:46:52;;;;;;;14.67;10.53;;;3.70;99.90;;;;;;5076436;28;20181;-78
2024/01/30 11:49:18;;;;;;;15.03;10.67;;;3.70;99.90;;;;;;5077879;28;20652;-77
2024/01/30 11:51:48;;;;;;;18.93;10.87;;;3.80;99.90;;;;;;5077936;28;20188;-76
2024/01/30 11:54:15;;;;;;;13.77;10.07;;;3.80;99.90;;;;;;5076842;28;20168;-77
2024/01/30 11:56:43;;;;;;;16.47;9.63;;;3.80;99.90;;;;;;5076520;28;20267;-79
2024/01/30 11:59:09;;;;;;;13.97;10.30;;;3.90;99.90;;;;;;5079982;28;20197;-77
2024/01/30 12:01:35;;;;;;;15.83;10.17;;;3.90;99.90;;;;;;5078469;28;20175;-76
2024/01/30 12:04:01;;;;;;;18.70;9.30;;;3.90;99.90;;;;;;5076664;28;20186;-77
2024/01/30 12:06:27;;;;;;;14.93;9.70;;;3.90;99.90;;;;;;5076229;28;20186;-76
2024/01/30 12:08:59;;;;;;;12.53;10.00;;;4.00;99.90;;;;;;5077805;28;20546;-77
2024/01/30 12:11:26;;;;;;;15.53;10.10;;;4.00;99.90;;;;;;5076454;28;20179;-78
2024/01/30 12:13:53;;;;;;;14.20;10.23;;;3.90;99.90;;;;;;5076569;28;20182;-77
2024/01/30 12:16:19;;;;;;;16.80;10.23;;;3.90;99.90;;;;;;5076236;28;20221;-78
2024/01/30 12:18:45;;;;;;;15.30;9.63;;;4.00;99.90;;;;;;5076024;28;20272;-77
2024/01/30 12:21:11;;;;;;;17.83;9.27;;;4.00;99.90;;;;;;5076420;28;20264;-77
2024/01/30 12:23:36;;;;;;;14.20;9.83;;;3.90;99.90;;;;;;5075585;28;20205;-77
2024/01/30 12:26:06;;;;;;;15.43;9.70;;;3.90;99.90;;;;;;5077244;28;20685;-77
2024/01/30 12:28:33;;;;;;;10.83;8.60;;;4.00;99.90;;;;;;5077426;28;20178;-77
2024/01/30 12:31:03;;;;;;;13.27;8.97;;;4.00;99.90;;;;;;5076216;28;20227;-77